<?xml version='1.0' encoding='UTF-8'?>
<gpx xmlns="http://www.topografix.com/GPX/1/1" creator="www.balnam.be" version="1.1" xmlns:xsi="http://www.w3.org/2001/XMLSchema-instance" xsi:schemaLocation="http://www.topografix.com/GPX/1/1 http://www.topografix.com/GPX/1/1/gpx.xsd">
<trk>
<name>hdodo7</name>
<cmt>d</cmt>
<desc>Dour Chemin n°7 Rue Pont à Cavains / Rue de Bavay / Rue de l'Avaleresse - Rue de Bavay / Rue Sauwartan / Rue du Cimetière</desc>
<link href="https://chemins.be/dour/chemin/7"/><trkseg>
<trkpt lat="50.399774" lon="3.800112"><time>2026-05-02T17:12:50Z</time></trkpt>
<trkpt lat="50.399700" lon="3.802455"><time>2026-05-02T17:22:50Z</time></trkpt>
<trkpt lat="50.400216" lon="3.803276"><time>2026-05-02T17:32:50Z</time></trkpt>
</trkseg></trk>
<trk>
<name>hdodo7</name>
<cmt>r</cmt>
<desc>Dour Chemin n°7 Rue Pont à Cavains / Rue de Bavay / Rue de l'Avaleresse - Rue de Bavay / Rue Sauwartan / Rue du Cimetière</desc>
<link href="https://chemins.be/dour/chemin/7"/><trkseg>
<trkpt lat="50.400216" lon="3.803276"><time>2026-05-02T17:32:50Z</time></trkpt>
<trkpt lat="50.400614" lon="3.804896"><time>2026-05-02T17:42:50Z</time></trkpt>
<trkpt lat="50.400901" lon="3.806231"><time>2026-05-02T17:52:50Z</time></trkpt>
</trkseg></trk>
<trk>
<name>hdodo7</name>
<cmt>d</cmt>
<desc>Dour Chemin n°7 Rue Pont à Cavains / Rue de Bavay / Rue de l'Avaleresse - Rue de Bavay / Rue Sauwartan / Rue du Cimetière</desc>
<link href="https://chemins.be/dour/chemin/7"/><trkseg>
<trkpt lat="50.400901" lon="3.806231"><time>2026-05-02T17:52:50Z</time></trkpt>
<trkpt lat="50.401468" lon="3.807407"><time>2026-05-02T18:02:50Z</time></trkpt>
<trkpt lat="50.401477" lon="3.807665"><time>2026-05-02T18:12:50Z</time></trkpt>
</trkseg></trk>
<trk>
<name>hdodo7</name>
<cmt>v</cmt>
<desc>Dour Chemin n°7 Rue Pont à Cavains / Rue de Bavay / Rue de l'Avaleresse - Rue de Bavay / Rue Sauwartan / Rue du Cimetière</desc>
<link href="https://chemins.be/dour/chemin/7"/><trkseg>
<trkpt lat="50.401477" lon="3.807665"><time>2026-05-02T18:12:50Z</time></trkpt>
<trkpt lat="50.401434" lon="3.808153"><time>2026-05-02T18:22:50Z</time></trkpt>
<trkpt lat="50.401420" lon="3.808271"><time>2026-05-02T18:32:50Z</time></trkpt>
<trkpt lat="50.400897" lon="3.809607"><time>2026-05-02T18:42:50Z</time></trkpt>
</trkseg></trk>
<trk>
<name>hdodo7</name>
<cmt>r</cmt>
<desc>Dour Chemin n°7 Rue Pont à Cavains / Rue de Bavay / Rue de l'Avaleresse - Rue de Bavay / Rue Sauwartan / Rue du Cimetière</desc>
<link href="https://chemins.be/dour/chemin/7"/><trkseg>
<trkpt lat="50.400897" lon="3.809607"><time>2026-05-02T18:42:50Z</time></trkpt>
<trkpt lat="50.399881" lon="3.809488"><time>2026-05-02T18:52:50Z</time></trkpt>
<trkpt lat="50.394912" lon="3.812926"><time>2026-05-02T19:02:50Z</time></trkpt>
<trkpt lat="50.392847" lon="3.815104"><time>2026-05-02T19:12:50Z</time></trkpt>
</trkseg></trk>
<trk>
<name>hdodo7</name>
<cmt>v</cmt>
<desc>Dour Chemin n°7 Rue Pont à Cavains / Rue de Bavay / Rue de l'Avaleresse - Rue de Bavay / Rue Sauwartan / Rue du Cimetière</desc>
<link href="https://chemins.be/dour/chemin/7"/><trkseg>
<trkpt lat="50.392847" lon="3.815104"><time>2026-05-02T19:12:50Z</time></trkpt>
<trkpt lat="50.392105" lon="3.815689"><time>2026-05-02T19:22:50Z</time></trkpt>
<trkpt lat="50.391462" lon="3.816569"><time>2026-05-02T19:32:50Z</time></trkpt>
<trkpt lat="50.391298" lon="3.818071"><time>2026-05-02T19:42:50Z</time></trkpt>
<trkpt lat="50.390764" lon="3.819809"><time>2026-05-02T19:52:50Z</time></trkpt>
<trkpt lat="50.390757" lon="3.821311"><time>2026-05-02T20:02:50Z</time></trkpt>
<trkpt lat="50.390668" lon="3.822405"><time>2026-05-02T20:12:50Z</time></trkpt>
<trkpt lat="50.389903" lon="3.822684"><time>2026-05-02T20:22:50Z</time></trkpt>
<trkpt lat="50.389533" lon="3.823242"><time>2026-05-02T20:32:50Z</time></trkpt>
<trkpt lat="50.389278" lon="3.824406"><time>2026-05-02T20:42:50Z</time></trkpt>
<trkpt lat="50.388973" lon="3.824986"><time>2026-05-02T20:52:50Z</time></trkpt>
<trkpt lat="50.388678" lon="3.825377"><time>2026-05-02T21:02:50Z</time></trkpt>
<trkpt lat="50.388097" lon="3.825538"><time>2026-05-02T21:12:50Z</time></trkpt>
<trkpt lat="50.385579" lon="3.824851"><time>2026-05-02T21:22:50Z</time></trkpt>
</trkseg>
</trk>
</gpx>